sensor_id;sensor_type;location;lat;lon;timestamp;P1;durP1;ratioP1;P2;durP2;ratioP2
6019;SDS011;3038;51.122;6.840;2023-03-01T00:00:54;11.67;;;10.47;;
6019;SDS011;3038;51.122;6.840;2023-03-01T00:03:26;11.13;;;9.87;;
6019;SDS011;3038;51.122;6.840;2023-03-01T00:05:52;15.00;;;11.63;;
6019;SDS011;3038;51.122;6.840;2023-03-01T00:08:17;13.57;;;11.00;;
6019;SDS011;3038;51.122;6.840;2023-03-01T00:10:43;10.80;;;9.80;;
6019;SDS011;3038;51.122;6.840;2023-03-01T00:13:08;12.33;;;11.03;;
6019;SDS011;3038;51.122;6.840;2023-03-01T00:15:37;12.97;;;11.57;;
6019;SDS011;3038;51.122;6.840;2023-03-01T00:18:03;13.63;;;11.60;;
6019;SDS011;3038;51.122;6.840;2023-03-01T00:20:28;12.77;;;11.47;;
6019;SDS011;3038;51.122;6.840;2023-03-01T00:22:54;11.47;;;10.30;;
6019;SDS011;3038;51.122;6.840;2023-03-01T00:25:19;12.40;;;10.77;;
6019;SDS011;3038;51.122;6.840;2023-03-01T00:27:44;12.53;;;11.23;;
6019;SDS011;3038;51.122;6.840;2023-03-01T00:30:11;14.00;;;11.30;;
6019;SDS011;3038;51.122;6.840;2023-03-01T00:32:37;11.07;;;9.87;;
6019;SDS011;3038;51.122;6.840;2023-03-01T00:35:02;14.23;;;11.17;;
6019;SDS011;3038;51.122;6.840;2023-03-01T00:37:28;14.13;;;11.37;;
6019;SDS011;3038;51.122;6.840;2023-03-01T00:39:53;13.97;;;11.13;;
6019;SDS011;3038;51.122;6.840;2023-03-01T00:42:19;13.50;;;10.70;;
6019;SDS011;3038;51.122;6.840;2023-03-01T00:44:44;13.73;;;11.20;;
6019;SDS011;3038;51.122;6.840;2023-03-01T00:47:09;15.87;;;10.97;;
6019;SDS011;3038;51.122;6.840;2023-03-01T00:49:35;13.17;;;11.20;;
6019;SDS011;3038;51.122;6.840;2023-03-01T00:52:00;13.77;;;11.30;;
6019;SDS011;3038;51.122;6.840;2023-03-01T00:54:26;16.40;;;11.47;;
6019;SDS011;3038;51.122;6.840;2023-03-01T00:56:51;12.63;;;11.30;;
6019;SDS011;3038;51.122;6.840;2023-03-01T00:59:16;12.33;;;11.07;;
6019;SDS011;3038;51.122;6.840;2023-03-01T01:01:42;13.90;;;11.80;;
6019;SDS011;3038;51.122;6.840;2023-03-01T01:04:08;12.57;;;11.20;;
6019;SDS011;3038;51.122;6.840;2023-03-01T01:06:36;12.57;;;11.30;;
6019;SDS011;3038;51.122;6.840;2023-03-01T01:09:10;13.43;;;10.73;;
6019;SDS011;3038;51.122;6.840;2023-03-01T01:11:42;13.80;;;12.37;;
6019;SDS011;3038;51.122;6.840;2023-03-01T01:14:09;13.00;;;11.70;;
6019;SDS011;3038;51.122;6.840;2023-03-01T01:16:35;13.80;;;12.30;;
6019;SDS011;3038;51.122;6.840;2023-03-01T01:19:00;16.20;;;12.53;;
6019;SDS011;3038;51.122;6.840;2023-03-01T01:21:26;13.30;;;11.77;;
6019;SDS011;3038;51.122;6.840;2023-03-01T01:23:52;16.23;;;12.70;;
6019;SDS011;3038;51.122;6.840;2023-03-01T01:26:19;13.07;;;11.77;;
6019;SDS011;3038;51.122;6.840;2023-03-01T01:28:47;14.00;;;10.33;;
6019;SDS011;3038;51.122;6.840;2023-03-01T01:31:13;12.40;;;11.10;;
6019;SDS011;3038;51.122;6.840;2023-03-01T01:33:39;14.83;;;12.10;;
6019;SDS011;3038;51.122;6.840;2023-03-01T01:36:05;12.27;;;10.63;;
6019;SDS011;3038;51.122;6.840;2023-03-01T01:38:32;14.40;;;11.23;;
6019;SDS011;3038;51.122;6.840;2023-03-01T01:40:58;15.93;;;12.13;;
6019;SDS011;3038;51.122;6.840;2023-03-01T01:43:25;14.40;;;12.33;;
6019;SDS011;3038;51.122;6.840;2023-03-01T01:46:15;13.03;;;11.20;;
6019;SDS011;3038;51.122;6.840;2023-03-01T01:48:53;20.03;;;12.60;;
6019;SDS011;3038;51.122;6.840;2023-03-01T01:51:27;12.27;;;11.00;;
6019;SDS011;3038;51.122;6.840;2023-03-01T01:54:03;13.30;;;11.10;;
6019;SDS011;3038;51.122;6.840;2023-03-01T01:56:33;13.60;;;11.13;;
6019;SDS011;3038;51.122;6.840;2023-03-01T01:59:02;13.73;;;11.20;;
6019;SDS011;3038;51.122;6.840;2023-03-01T02:01:28;13.33;;;11.50;;
6019;SDS011;3038;51.122;6.840;2023-03-01T02:03:53;14.30;;;11.23;;
6019;SDS011;3038;51.122;6.840;2023-03-01T02:06:21;16.97;;;11.97;;
6019;SDS011;3038;51.122;6.840;2023-03-01T02:09:11;13.60;;;11.33;;
6019;SDS011;3038;51.122;6.840;2023-03-01T02:11:38;12.87;;;11.43;;
6019;SDS011;3038;51.122;6.840;2023-03-01T02:14:04;12.17;;;10.87;;
6019;SDS011;3038;51.122;6.840;2023-03-01T02:16:30;14.23;;;12.10;;
6019;SDS011;3038;51.122;6.840;2023-03-01T02:18:57;13.50;;;11.90;;
6019;SDS011;3038;51.122;6.840;2023-03-01T02:22:06;12.07;;;10.90;;
6019;SDS011;3038;51.122;6.840;2023-03-01T02:24:40;12.57;;;10.80;;
6019;SDS011;3038;51.122;6.840;2023-03-01T02:27:22;11.57;;;10.33;;
6019;SDS011;3038;51.122;6.840;2023-03-01T02:29:53;16.10;;;11.90;;
6019;SDS011;3038;51.122;6.840;2023-03-01T02:32:19;17.90;;;11.57;;
6019;SDS011;3038;51.122;6.840;2023-03-01T02:34:50;12.93;;;10.93;;
6019;SDS011;3038;51.122;6.840;2023-03-01T02:37:18;12.83;;;11.13;;
6019;SDS011;3038;51.122;6.840;2023-03-01T02:39:52;14.90;;;11.87;;
6019;SDS011;3038;51.122;6.840;2023-03-01T02:42:25;15.77;;;11.90;;
6019;SDS011;3038;51.122;6.840;2023-03-01T02:44:55;12.30;;;11.10;;
6019;SDS011;3038;51.122;6.840;2023-03-01T02:47:21;13.83;;;12.40;;
6019;SDS011;3038;51.122;6.840;2023-03-01T02:49:46;14.67;;;11.83;;
6019;SDS011;3038;51.122;6.840;2023-03-01T02:52:17;15.77;;;11.80;;
6019;SDS011;3038;51.122;6.840;2023-03-01T02:57:34;17.83;;;12.07;;
6019;SDS011;3038;51.122;6.840;2023-03-01T03:00:03;14.20;;;12.73;;
6019;SDS011;3038;51.122;6.840;2023-03-01T03:02:32;19.27;;;11.93;;
6019;SDS011;3038;51.122;6.840;2023-03-01T03:05:08;14.30;;;11.60;;
6019;SDS011;3038;51.122;6.840;2023-03-01T03:07:36;13.57;;;10.57;;
6019;SDS011;3038;51.122;6.840;2023-03-01T03:10:04;14.53;;;12.80;;
6019;SDS011;3038;51.122;6.840;2023-03-01T03:12:31;16.27;;;12.27;;
6019;SDS011;3038;51.122;6.840;2023-03-01T03:14:56;16.80;;;12.23;;
6019;SDS011;3038;51.122;6.840;2023-03-01T03:17:22;13.20;;;11.50;;
6019;SDS011;3038;51.122;6.840;2023-03-01T03:19:47;15.10;;;12.33;;
6019;SDS011;3038;51.122;6.840;2023-03-01T03:22:13;18.90;;;13.20;;
6019;SDS011;3038;51.122;6.840;2023-03-01T03:24:38;13.87;;;11.50;;
6019;SDS011;3038;51.122;6.840;2023-03-01T03:27:04;16.30;;;12.13;;
6019;SDS011;3038;51.122;6.840;2023-03-01T03:29:30;13.87;;;12.40;;
6019;SDS011;3038;51.122;6.840;2023-03-01T03:31:56;15.13;;;12.00;;
6019;SDS011;3038;51.122;6.840;2023-03-01T03:34:21;14.97;;;12.00;;
6019;SDS011;3038;51.122;6.840;2023-03-01T03:36:46;19.43;;;13.13;;
6019;SDS011;3038;51.122;6.840;2023-03-01T03:39:12;15.77;;;13.30;;
6019;SDS011;3038;51.122;6.840;2023-03-01T03:41:37;15.67;;;12.00;;
6019;SDS011;3038;51.122;6.840;2023-03-01T03:44:02;15.87;;;12.57;;
6019;SDS011;3038;51.122;6.840;2023-03-01T03:46:28;12.47;;;11.20;;
6019;SDS011;3038;51.122;6.840;2023-03-01T03:48:53;13.90;;;12.47;;
6019;SDS011;3038;51.122;6.840;2023-03-01T03:51:18;12.17;;;10.97;;
6019;SDS011;3038;51.122;6.840;2023-03-01T03:53:44;11.67;;;10.40;;
6019;SDS011;3038;51.122;6.840;2023-03-01T03:56:11;15.17;;;13.40;;
6019;SDS011;3038;51.122;6.840;2023-03-01T03:58:37;14.90;;;12.37;;
6019;SDS011;3038;51.122;6.840;2023-03-01T04:01:02;14.57;;;12.03;;
6019;SDS011;3038;51.122;6.840;2023-03-01T04:03:29;14.27;;;11.57;;
6019;SDS011;3038;51.122;6.840;2023-03-01T04:05:57;23.33;;;12.70;;
6019;SDS011;3038;51.122;6.840;2023-03-01T04:08:23;14.47;;;12.20;;
6019;SDS011;3038;51.122;6.840;2023-03-01T04:10:50;15.93;;;12.40;;
6019;SDS011;3038;51.122;6.840;2023-03-01T04:13:18;15.53;;;12.63;;
6019;SDS011;3038;51.122;6.840;2023-03-01T04:15:45;15.60;;;13.00;;
6019;SDS011;3038;51.122;6.840;2023-03-01T04:18:14;16.63;;;12.60;;
6019;SDS011;3038;51.122;6.840;2023-03-01T04:20:41;15.13;;;12.47;;
6019;SDS011;3038;51.122;6.840;2023-03-01T04:23:08;16.17;;;12.73;;
6019;SDS011;3038;51.122;6.840;2023-03-01T04:25:47;13.60;;;12.10;;
6019;SDS011;3038;51.122;6.840;2023-03-01T04:28:21;16.10;;;13.97;;
6019;SDS011;3038;51.122;6.840;2023-03-01T04:30:47;14.03;;;12.10;;
6019;SDS011;3038;51.122;6.840;2023-03-01T04:33:12;14.27;;;12.77;;
6019;SDS011;3038;51.122;6.840;2023-03-01T04:35:38;16.30;;;12.47;;
6019;SDS011;3038;51.122;6.840;2023-03-01T04:38:04;16.30;;;12.43;;
6019;SDS011;3038;51.122;6.840;2023-03-01T04:40:30;13.10;;;11.63;;
6019;SDS011;3038;51.122;6.840;2023-03-01T04:42:56;15.63;;;13.00;;
6019;SDS011;3038;51.122;6.840;2023-03-01T04:45:21;17.70;;;13.40;;
6019;SDS011;3038;51.122;6.840;2023-03-01T04:47:47;16.03;;;12.33;;
6019;SDS011;3038;51.122;6.840;2023-03-01T04:50:14;16.70;;;13.60;;
6019;SDS011;3038;51.122;6.840;2023-03-01T04:52:42;15.37;;;12.73;;
6019;SDS011;3038;51.122;6.840;2023-03-01T04:55:08;17.60;;;13.17;;
6019;SDS011;3038;51.122;6.840;2023-03-01T04:57:34;15.07;;;12.50;;
6019;SDS011;3038;51.122;6.840;2023-03-01T04:59:59;19.10;;;13.30;;
6019;SDS011;3038;51.122;6.840;2023-03-01T05:02:25;13.33;;;11.90;;
6019;SDS011;3038;51.122;6.840;2023-03-01T05:04:50;17.57;;;14.10;;
6019;SDS011;3038;51.122;6.840;2023-03-01T05:07:16;14.47;;;11.40;;
6019;SDS011;3038;51.122;6.840;2023-03-01T05:09:44;19.23;;;13.50;;
6019;SDS011;3038;51.122;6.840;2023-03-01T05:12:11;16.37;;;14.27;;
6019;SDS011;3038;51.122;6.840;2023-03-01T05:14:37;17.57;;;13.00;;
6019;SDS011;3038;51.122;6.840;2023-03-01T05:17:03;17.00;;;13.67;;
6019;SDS011;3038;51.122;6.840;2023-03-01T05:19:29;17.60;;;13.80;;
6019;SDS011;3038;51.122;6.840;2023-03-01T05:21:56;15.67;;;12.50;;
6019;SDS011;3038;51.122;6.840;2023-03-01T05:24:29;14.10;;;12.13;;
6019;SDS011;3038;51.122;6.840;2023-03-01T05:26:56;12.93;;;11.47;;
6019;SDS011;3038;51.122;6.840;2023-03-01T05:29:22;15.03;;;12.73;;
6019;SDS011;3038;51.122;6.840;2023-03-01T05:31:55;17.07;;;13.37;;
6019;SDS011;3038;51.122;6.840;2023-03-01T05:34:33;16.03;;;13.00;;
6019;SDS011;3038;51.122;6.840;2023-03-01T05:37:00;16.30;;;12.67;;
6019;SDS011;3038;51.122;6.840;2023-03-01T05:39:27;15.57;;;12.60;;
6019;SDS011;3038;51.122;6.840;2023-03-01T05:41:54;20.30;;;13.97;;
6019;SDS011;3038;51.122;6.840;2023-03-01T05:44:20;14.90;;;12.90;;
6019;SDS011;3038;51.122;6.840;2023-03-01T05:46:46;14.70;;;13.10;;
6019;SDS011;3038;51.122;6.840;2023-03-01T05:49:11;19.60;;;13.57;;
6019;SDS011;3038;51.122;6.840;2023-03-01T05:51:38;16.90;;;14.10;;
6019;SDS011;3038;51.122;6.840;2023-03-01T05:54:07;18.07;;;13.07;;
6019;SDS011;3038;51.122;6.840;2023-03-01T05:56:33;25.27;;;14.10;;
6019;SDS011;3038;51.122;6.840;2023-03-01T05:58:59;16.03;;;13.13;;
6019;SDS011;3038;51.122;6.840;2023-03-01T06:01:25;20.40;;;13.80;;
6019;SDS011;3038;51.122;6.840;2023-03-01T06:03:51;19.23;;;15.37;;
6019;SDS011;3038;51.122;6.840;2023-03-01T06:06:16;19.53;;;13.60;;
6019;SDS011;3038;51.122;6.840;2023-03-01T06:08:42;19.60;;;13.87;;
6019;SDS011;3038;51.122;6.840;2023-03-01T06:11:07;21.47;;;14.97;;
6019;SDS011;3038;51.122;6.840;2023-03-01T06:13:32;17.97;;;13.60;;
6019;SDS011;3038;51.122;6.840;2023-03-01T06:15:58;23.67;;;14.93;;
6019;SDS011;3038;51.122;6.840;2023-03-01T06:18:23;18.53;;;13.63;;
6019;SDS011;3038;51.122;6.840;2023-03-01T06:20:52;19.73;;;13.50;;
6019;SDS011;3038;51.122;6.840;2023-03-01T06:23:19;16.17;;;13.40;;
6019;SDS011;3038;51.122;6.840;2023-03-01T06:25:44;15.90;;;12.37;;
6019;SDS011;3038;51.122;6.840;2023-03-01T06:28:09;22.30;;;15.00;;
6019;SDS011;3038;51.122;6.840;2023-03-01T06:30:35;19.60;;;14.93;;
6019;SDS011;3038;51.122;6.840;2023-03-01T06:33:00;19.33;;;14.17;;
6019;SDS011;3038;51.122;6.840;2023-03-01T06:35:28;17.13;;;13.40;;
6019;SDS011;3038;51.122;6.840;2023-03-01T06:37:55;19.93;;;15.10;;
6019;SDS011;3038;51.122;6.840;2023-03-01T06:40:20;17.93;;;13.77;;
6019;SDS011;3038;51.122;6.840;2023-03-01T06:42:49;16.23;;;13.63;;
6019;SDS011;3038;51.122;6.840;2023-03-01T06:45:15;20.57;;;14.73;;
6019;SDS011;3038;51.122;6.840;2023-03-01T06:47:41;19.27;;;14.00;;
6019;SDS011;3038;51.122;6.840;2023-03-01T06:50:09;18.53;;;14.33;;
6019;SDS011;3038;51.122;6.840;2023-03-01T06:52:40;17.73;;;15.83;;
6019;SDS011;3038;51.122;6.840;2023-03-01T06:55:06;17.70;;;14.43;;
6019;SDS011;3038;51.122;6.840;2023-03-01T06:57:34;17.93;;;13.40;;
6019;SDS011;3038;51.122;6.840;2023-03-01T06:59:59;20.33;;;14.67;;
6019;SDS011;3038;51.122;6.840;2023-03-01T07:02:25;21.23;;;14.53;;
6019;SDS011;3038;51.122;6.840;2023-03-01T07:04:50;22.30;;;15.07;;
6019;SDS011;3038;51.122;6.840;2023-03-01T07:07:17;24.97;;;15.60;;
6019;SDS011;3038;51.122;6.840;2023-03-01T07:09:43;23.50;;;15.73;;
6019;SDS011;3038;51.122;6.840;2023-03-01T07:12:13;27.30;;;16.17;;
6019;SDS011;3038;51.122;6.840;2023-03-01T07:14:38;24.87;;;15.27;;
6019;SDS011;3038;51.122;6.840;2023-03-01T07:17:03;18.20;;;14.37;;
6019;SDS011;3038;51.122;6.840;2023-03-01T07:19:29;18.30;;;14.57;;
6019;SDS011;3038;51.122;6.840;2023-03-01T07:21:54;18.83;;;13.53;;
6019;SDS011;3038;51.122;6.840;2023-03-01T07:24:21;17.33;;;13.93;;
6019;SDS011;3038;51.122;6.840;2023-03-01T07:26:50;17.40;;;13.07;;
6019;SDS011;3038;51.122;6.840;2023-03-01T07:29:16;16.80;;;14.10;;
6019;SDS011;3038;51.122;6.840;2023-03-01T07:31:42;20.90;;;15.03;;
6019;SDS011;3038;51.122;6.840;2023-03-01T07:34:08;17.07;;;14.93;;
6019;SDS011;3038;51.122;6.840;2023-03-01T07:36:36;23.70;;;15.23;;
6019;SDS011;3038;51.122;6.840;2023-03-01T07:39:02;20.93;;;15.67;;
6019;SDS011;3038;51.122;6.840;2023-03-01T07:41:28;29.03;;;16.27;;
6019;SDS011;3038;51.122;6.840;2023-03-01T07:43:55;22.43;;;15.60;;
6019;SDS011;3038;51.122;6.840;2023-03-01T07:46:20;21.50;;;16.50;;
6019;SDS011;3038;51.122;6.840;2023-03-01T07:48:46;28.27;;;21.77;;
6019;SDS011;3038;51.122;6.840;2023-03-01T07:51:11;23.60;;;19.03;;
6019;SDS011;3038;51.122;6.840;2023-03-01T07:53:37;23.30;;;18.43;;
6019;SDS011;3038;51.122;6.840;2023-03-01T07:56:09;20.33;;;15.13;;
6019;SDS011;3038;51.122;6.840;2023-03-01T07:58:37;18.07;;;15.57;;
6019;SDS011;3038;51.122;6.840;2023-03-01T08:01:04;27.10;;;16.20;;
6019;SDS011;3038;51.122;6.840;2023-03-01T08:03:31;22.23;;;15.77;;
6019;SDS011;3038;51.122;6.840;2023-03-01T08:05:59;22.73;;;16.30;;
6019;SDS011;3038;51.122;6.840;2023-03-01T08:08:25;18.97;;;16.43;;
6019;SDS011;3038;51.122;6.840;2023-03-01T08:10:50;18.07;;;15.67;;
6019;SDS011;3038;51.122;6.840;2023-03-01T08:13:16;18.77;;;15.77;;
6019;SDS011;3038;51.122;6.840;2023-03-01T08:15:43;19.73;;;14.87;;
6019;SDS011;3038;51.122;6.840;2023-03-01T08:18:09;21.70;;;16.90;;
6019;SDS011;3038;51.122;6.840;2023-03-01T08:20:34;19.50;;;16.20;;
6019;SDS011;3038;51.122;6.840;2023-03-01T08:22:59;21.73;;;16.30;;
6019;SDS011;3038;51.122;6.840;2023-03-01T08:25:25;23.00;;;16.30;;
6019;SDS011;3038;51.122;6.840;2023-03-01T08:27:50;22.27;;;15.47;;
6019;SDS011;3038;51.122;6.840;2023-03-01T08:30:15;18.70;;;15.70;;
6019;SDS011;3038;51.122;6.840;2023-03-01T08:32:41;19.80;;;15.80;;
6019;SDS011;3038;51.122;6.840;2023-03-01T08:35:06;17.90;;;15.77;;
6019;SDS011;3038;51.122;6.840;2023-03-01T08:37:32;20.60;;;15.10;;
6019;SDS011;3038;51.122;6.840;2023-03-01T08:39:58;16.87;;;15.07;;
6019;SDS011;3038;51.122;6.840;2023-03-01T08:42:25;24.90;;;15.40;;
6019;SDS011;3038;51.122;6.840;2023-03-01T08:44:50;19.87;;;14.50;;
6019;SDS011;3038;51.122;6.840;2023-03-01T08:47:16;14.90;;;13.17;;
6019;SDS011;3038;51.122;6.840;2023-03-01T08:49:42;18.87;;;14.53;;
6019;SDS011;3038;51.122;6.840;2023-03-01T08:52:07;17.17;;;14.33;;
6019;SDS011;3038;51.122;6.840;2023-03-01T08:54:33;16.77;;;13.07;;
6019;SDS011;3038;51.122;6.840;2023-03-01T08:56:58;16.10;;;13.40;;
6019;SDS011;3038;51.122;6.840;2023-03-01T08:59:26;16.80;;;13.87;;
6019;SDS011;3038;51.122;6.840;2023-03-01T09:01:52;16.37;;;13.63;;
6019;SDS011;3038;51.122;6.840;2023-03-01T09:04:17;23.83;;;14.60;;
6019;SDS011;3038;51.122;6.840;2023-03-01T09:06:43;17.57;;;14.50;;
6019;SDS011;3038;51.122;6.840;2023-03-01T09:09:15;16.20;;;13.47;;
6019;SDS011;3038;51.122;6.840;2023-03-01T09:11:42;18.30;;;14.50;;
6019;SDS011;3038;51.122;6.840;2023-03-01T09:14:10;20.07;;;15.00;;
6019;SDS011;3038;51.122;6.840;2023-03-01T09:16:36;16.27;;;13.90;;
6019;SDS011;3038;51.122;6.840;2023-03-01T09:19:02;17.07;;;14.90;;
6019;SDS011;3038;51.122;6.840;2023-03-01T09:21:28;17.70;;;13.70;;
6019;SDS011;3038;51.122;6.840;2023-03-01T09:23:55;15.60;;;13.90;;
6019;SDS011;3038;51.122;6.840;2023-03-01T09:26:22;18.47;;;13.90;;
6019;SDS011;3038;51.122;6.840;2023-03-01T09:28:48;15.60;;;13.17;;
6019;SDS011;3038;51.122;6.840;2023-03-01T09:31:16;17.83;;;13.30;;
6019;SDS011;3038;51.122;6.840;2023-03-01T09:33:44;17.30;;;13.20;;
6019;SDS011;3038;51.122;6.840;2023-03-01T09:36:13;17.60;;;14.60;;
6019;SDS011;3038;51.122;6.840;2023-03-01T09:38:41;17.20;;;13.33;;
6019;SDS011;3038;51.122;6.840;2023-03-01T09:41:10;14.67;;;12.90;;
6019;SDS011;3038;51.122;6.840;2023-03-01T09:43:55;17.87;;;13.23;;
6019;SDS011;3038;51.122;6.840;2023-03-01T09:46:42;14.70;;;12.80;;
6019;SDS011;3038;51.122;6.840;2023-03-01T09:49:19;14.97;;;11.93;;
6019;SDS011;3038;51.122;6.840;2023-03-01T09:52:23;14.40;;;11.30;;
6019;SDS011;3038;51.122;6.840;2023-03-01T09:54:48;13.10;;;11.57;;
6019;SDS011;3038;51.122;6.840;2023-03-01T10:00:18;15.27;;;12.30;;
6019;SDS011;3038;51.122;6.840;2023-03-01T10:02:51;16.60;;;12.20;;
6019;SDS011;3038;51.122;6.840;2023-03-01T10:08:33;13.83;;;11.90;;
6019;SDS011;3038;51.122;6.840;2023-03-01T10:11:22;14.30;;;12.00;;
6019;SDS011;3038;51.122;6.840;2023-03-01T10:19:40;14.73;;;13.17;;
6019;SDS011;3038;51.122;6.840;2023-03-01T10:24:47;15.00;;;13.50;;
6019;SDS011;3038;51.122;6.840;2023-03-01T10:27:19;15.10;;;13.70;;
6019;SDS011;3038;51.122;6.840;2023-03-01T10:30:02;14.10;;;12.70;;
6019;SDS011;3038;51.122;6.840;2023-03-01T10:32:36;14.37;;;13.07;;
6019;SDS011;3038;51.122;6.840;2023-03-01T10:35:15;14.27;;;13.07;;
6019;SDS011;3038;51.122;6.840;2023-03-01T10:40:31;14.67;;;13.30;;
6019;SDS011;3038;51.122;6.840;2023-03-01T10:43:01;16.77;;;15.10;;
6019;SDS011;3038;51.122;6.840;2023-03-01T10:48:14;16.90;;;15.40;;
6019;SDS011;3038;51.122;6.840;2023-03-01T10:50:40;16.40;;;15.00;;
6019;SDS011;3038;51.122;6.840;2023-03-01T10:53:16;16.47;;;14.80;;
6019;SDS011;3038;51.122;6.840;2023-03-01T10:55:47;16.50;;;15.10;;
6019;SDS011;3038;51.122;6.840;2023-03-01T10:58:21;14.80;;;13.50;;
6019;SDS011;3038;51.122;6.840;2023-03-01T11:03:16;17.00;;;15.40;;
6019;SDS011;3038;51.122;6.840;2023-03-01T11:05:52;15.50;;;14.20;;
6019;SDS011;3038;51.122;6.840;2023-03-01T11:13:36;15.63;;;14.33;;
6019;SDS011;3038;51.122;6.840;2023-03-01T11:16:58;15.73;;;14.33;;
6019;SDS011;3038;51.122;6.840;2023-03-01T11:19:15;16.70;;;15.23;;
6019;SDS011;3038;51.122;6.840;2023-03-01T11:21:44;15.77;;;14.57;;
6019;SDS011;3038;51.122;6.840;2023-03-01T11:24:27;15.30;;;13.90;;
6019;SDS011;3038;51.122;6.840;2023-03-01T11:26:57;14.77;;;13.47;;
6019;SDS011;3038;51.122;6.840;2023-03-01T11:29:30;17.10;;;14.77;;
6019;SDS011;3038;51.122;6.840;2023-03-01T11:32:01;15.40;;;14.20;;
6019;SDS011;3038;51.122;6.840;2023-03-01T11:34:34;16.03;;;14.63;;
6019;SDS011;3038;51.122;6.840;2023-03-01T11:37:08;15.67;;;14.27;;
6019;SDS011;3038;51.122;6.840;2023-03-01T11:45:28;14.47;;;13.30;;
6019;SDS011;3038;51.122;6.840;2023-03-01T11:50:50;15.47;;;14.07;;
6019;SDS011;3038;51.122;6.840;2023-03-01T11:53:27;14.93;;;13.73;;
6019;SDS011;3038;51.122;6.840;2023-03-01T11:57:02;13.90;;;12.77;;
6019;SDS011;3038;51.122;6.840;2023-03-01T12:01:49;17.47;;;15.87;;
6019;SDS011;3038;51.122;6.840;2023-03-01T12:07:17;15.73;;;14.33;;
6019;SDS011;3038;51.122;6.840;2023-03-01T12:18:24;18.23;;;16.43;;
6019;SDS011;3038;51.122;6.840;2023-03-01T12:24:10;17.60;;;16.10;;
6019;SDS011;3038;51.122;6.840;2023-03-01T12:27:09;18.37;;;16.70;;
6019;SDS011;3038;51.122;6.840;2023-03-01T12:29:42;17.57;;;15.97;;
6019;SDS011;3038;51.122;6.840;2023-03-01T12:33:01;16.37;;;14.97;;
6019;SDS011;3038;51.122;6.840;2023-03-01T12:43:47;18.87;;;17.03;;
6019;SDS011;3038;51.122;6.840;2023-03-01T12:49:35;15.70;;;14.20;;
6019;SDS011;3038;51.122;6.840;2023-03-01T12:52:31;16.50;;;15.00;;
6019;SDS011;3038;51.122;6.840;2023-03-01T12:54:51;16.90;;;15.40;;
6019;SDS011;3038;51.122;6.840;2023-03-01T13:00:10;15.83;;;14.37;;
6019;SDS011;3038;51.122;6.840;2023-03-01T13:02:52;16.73;;;15.20;;
6019;SDS011;3038;51.122;6.840;2023-03-01T13:05:39;15.73;;;14.23;;
6019;SDS011;3038;51.122;6.840;2023-03-01T13:08:23;16.00;;;14.57;;
6019;SDS011;3038;51.122;6.840;2023-03-01T13:11:11;15.93;;;14.53;;
6019;SDS011;3038;51.122;6.840;2023-03-01T13:13:42;16.50;;;15.00;;
6019;SDS011;3038;51.122;6.840;2023-03-01T13:19:05;13.90;;;12.70;;
6019;SDS011;3038;51.122;6.840;2023-03-01T13:21:33;14.03;;;12.93;;
6019;SDS011;3038;51.122;6.840;2023-03-01T13:23:58;14.10;;;12.90;;
6019;SDS011;3038;51.122;6.840;2023-03-01T13:26:24;14.97;;;13.47;;
6019;SDS011;3038;51.122;6.840;2023-03-01T13:33:51;13.73;;;12.53;;
6019;SDS011;3038;51.122;6.840;2023-03-01T13:44:18;12.93;;;11.73;;
6019;SDS011;3038;51.122;6.840;2023-03-01T13:46:49;14.00;;;12.80;;
6019;SDS011;3038;51.122;6.840;2023-03-01T13:49:16;13.13;;;11.83;;
6019;SDS011;3038;51.122;6.840;2023-03-01T13:51:48;18.13;;;12.10;;
6019;SDS011;3038;51.122;6.840;2023-03-01T13:54:16;13.03;;;11.70;;
6019;SDS011;3038;51.122;6.840;2023-03-01T13:56:44;12.60;;;11.50;;
6019;SDS011;3038;51.122;6.840;2023-03-01T13:59:20;13.57;;;12.37;;
6019;SDS011;3038;51.122;6.840;2023-03-01T14:01:53;12.77;;;11.60;;
6019;SDS011;3038;51.122;6.840;2023-03-01T14:04:22;11.70;;;10.60;;
6019;SDS011;3038;51.122;6.840;2023-03-01T14:06:50;13.00;;;11.70;;
6019;SDS011;3038;51.122;6.840;2023-03-01T14:09:20;12.63;;;11.50;;
6019;SDS011;3038;51.122;6.840;2023-03-01T14:11:59;14.17;;;12.37;;
6019;SDS011;3038;51.122;6.840;2023-03-01T14:19:38;13.43;;;12.17;;
6019;SDS011;3038;51.122;6.840;2023-03-01T14:24:59;15.07;;;11.80;;
6019;SDS011;3038;51.122;6.840;2023-03-01T14:27:30;11.87;;;10.77;;
6019;SDS011;3038;51.122;6.840;2023-03-01T14:30:01;12.23;;;11.07;;
6019;SDS011;3038;51.122;6.840;2023-03-01T14:32:30;12.87;;;11.53;;
6019;SDS011;3038;51.122;6.840;2023-03-01T14:34:57;14.93;;;11.60;;
6019;SDS011;3038;51.122;6.840;2023-03-01T14:37:28;10.90;;;9.80;;
6019;SDS011;3038;51.122;6.840;2023-03-01T14:39:56;12.07;;;10.87;;
6019;SDS011;3038;51.122;6.840;2023-03-01T14:42:23;12.23;;;11.03;;
6019;SDS011;3038;51.122;6.840;2023-03-01T14:44:52;11.30;;;10.00;;
6019;SDS011;3038;51.122;6.840;2023-03-01T14:47:53;12.03;;;10.83;;
6019;SDS011;3038;51.122;6.840;2023-03-01T14:50:26;12.33;;;10.87;;
6019;SDS011;3038;51.122;6.840;2023-03-01T14:52:54;11.60;;;10.40;;
6019;SDS011;3038;51.122;6.840;2023-03-01T14:55:34;14.23;;;11.40;;
6019;SDS011;3038;51.122;6.840;2023-03-01T14:58:03;12.10;;;10.63;;
6019;SDS011;3038;51.122;6.840;2023-03-01T15:00:30;12.97;;;11.73;;
6019;SDS011;3038;51.122;6.840;2023-03-01T15:03:00;11.33;;;9.80;;
6019;SDS011;3038;51.122;6.840;2023-03-01T15:05:34;14.27;;;10.90;;
6019;SDS011;3038;51.122;6.840;2023-03-01T15:08:01;12.97;;;11.33;;
6019;SDS011;3038;51.122;6.840;2023-03-01T15:10:30;12.63;;;10.93;;
6019;SDS011;3038;51.122;6.840;2023-03-01T15:13:09;12.03;;;10.77;;
6019;SDS011;3038;51.122;6.840;2023-03-01T15:15:37;10.80;;;9.80;;
6019;SDS011;3038;51.122;6.840;2023-03-01T15:18:05;10.80;;;9.73;;
6019;SDS011;3038;51.122;6.840;2023-03-01T15:20:39;11.73;;;9.80;;
6019;SDS011;3038;51.122;6.840;2023-03-01T15:23:04;11.33;;;10.23;;
6019;SDS011;3038;51.122;6.840;2023-03-01T15:25:30;10.83;;;9.73;;
6019;SDS011;3038;51.122;6.840;2023-03-01T15:27:58;13.57;;;10.13;;
6019;SDS011;3038;51.122;6.840;2023-03-01T15:35:51;10.53;;;9.37;;
6019;SDS011;3038;51.122;6.840;2023-03-01T15:38:25;12.17;;;9.83;;
6019;SDS011;3038;51.122;6.840;2023-03-01T15:41:23;11.60;;;9.20;;
6019;SDS011;3038;51.122;6.840;2023-03-01T15:43:49;9.83;;;8.73;;
6019;SDS011;3038;51.122;6.840;2023-03-01T15:46:20;12.37;;;9.47;;
6019;SDS011;3038;51.122;6.840;2023-03-01T15:48:47;12.53;;;9.90;;
6019;SDS011;3038;51.122;6.840;2023-03-01T15:51:15;10.00;;;8.67;;
6019;SDS011;3038;51.122;6.840;2023-03-01T15:53:42;10.80;;;9.20;;
6019;SDS011;3038;51.122;6.840;2023-03-01T15:56:13;9.90;;;8.70;;
6019;SDS011;3038;51.122;6.840;2023-03-01T15:58:38;10.60;;;9.20;;
6019;SDS011;3038;51.122;6.840;2023-03-01T16:01:07;10.23;;;8.93;;
6019;SDS011;3038;51.122;6.840;2023-03-01T16:03:37;12.30;;;9.97;;
6019;SDS011;3038;51.122;6.840;2023-03-01T16:06:03;11.00;;;9.90;;
6019;SDS011;3038;51.122;6.840;2023-03-01T16:08:28;11.53;;;8.70;;
6019;SDS011;3038;51.122;6.840;2023-03-01T16:10:54;10.63;;;7.93;;
6019;SDS011;3038;51.122;6.840;2023-03-01T16:13:19;9.27;;;8.10;;
6019;SDS011;3038;51.122;6.840;2023-03-01T16:15:45;10.40;;;9.27;;
6019;SDS011;3038;51.122;6.840;2023-03-01T16:18:10;9.57;;;8.23;;
6019;SDS011;3038;51.122;6.840;2023-03-01T16:20:36;11.90;;;9.00;;
6019;SDS011;3038;51.122;6.840;2023-03-01T16:23:03;12.13;;;9.10;;
6019;SDS011;3038;51.122;6.840;2023-03-01T16:25:31;16.90;;;9.03;;
6019;SDS011;3038;51.122;6.840;2023-03-01T16:27:57;8.73;;;7.93;;
6019;SDS011;3038;51.122;6.840;2023-03-01T16:30:26;10.07;;;8.00;;
6019;SDS011;3038;51.122;6.840;2023-03-01T16:32:51;8.90;;;7.33;;
6019;SDS011;3038;51.122;6.840;2023-03-01T16:35:18;13.03;;;7.30;;
6019;SDS011;3038;51.122;6.840;2023-03-01T16:37:45;12.10;;;8.97;;
6019;SDS011;3038;51.122;6.840;2023-03-01T16:40:15;11.57;;;8.97;;
6019;SDS011;3038;51.122;6.840;2023-03-01T16:42:44;8.70;;;7.40;;